createdAt,value
2019-05-13T00:00:57.102Z,5.70
2019-05-13T00:03:27.054Z,5.60
2019-05-13T00:05:57.030Z,5.50
2019-05-13T00:08:26.997Z,5.40
2019-05-13T00:10:57.013Z,5.60
2019-05-13T00:13:27.078Z,5.60
2019-05-13T00:15:57.159Z,5.60
2019-05-13T00:18:27.138Z,5.60
2019-05-13T00:20:57.166Z,5.50
2019-05-13T00:23:27.123Z,5.30
2019-05-13T00:25:57.228Z,5.30
2019-05-13T00:28:27.260Z,5.20
2019-05-13T00:30:57.369Z,5.00
2019-05-13T00:33:27.399Z,5.20
2019-05-13T00:35:57.401Z,5.20
2019-05-13T00:38:27.395Z,5.40
2019-05-13T00:40:57.462Z,5.80
2019-05-13T00:43:27.423Z,5.90
2019-05-13T00:45:57.426Z,6.00
2019-05-13T00:48:29.704Z,6.00
2019-05-13T00:50:59.100Z,6.20
2019-05-13T00:53:29.091Z,6.30
2019-05-13T00:55:59.110Z,6.30
2019-05-13T00:58:29.164Z,6.30
2019-05-13T01:00:59.190Z,6.60
2019-05-13T01:03:29.182Z,6.90
2019-05-13T01:05:59.186Z,6.90
2019-05-13T01:08:29.139Z,6.70
2019-05-13T01:10:59.130Z,6.40
2019-05-13T01:13:29.086Z,6.20
2019-05-13T01:15:59.074Z,6.20
2019-05-13T01:18:29.067Z,6.20
2019-05-13T01:20:59.046Z,6.20
2019-05-13T01:23:29.092Z,6.50
2019-05-13T01:25:58.995Z,6.70
2019-05-13T01:28:28.962Z,6.70
2019-05-13T01:30:59.031Z,6.90
2019-05-13T01:33:28.995Z,6.80
2019-05-13T01:35:59.046Z,6.80
2019-05-13T01:38:29.035Z,6.50
2019-05-13T01:40:59.026Z,6.40
2019-05-13T01:43:29.082Z,6.50
2019-05-13T01:45:59.090Z,6.60
2019-05-13T01:48:29.139Z,6.90
2019-05-13T01:50:59.143Z,6.90
2019-05-13T01:53:30.170Z,7.00
2019-05-13T01:56:00.282Z,7.30
2019-05-13T01:58:30.281Z,7.00
2019-05-13T02:01:00.230Z,6.90
2019-05-13T02:03:30.201Z,6.70
2019-05-13T02:06:03.536Z,6.70
2019-05-13T02:08:33.672Z,6.90
2019-05-13T02:11:04.593Z,7.00
2019-05-13T02:13:34.755Z,6.90
2019-05-13T02:16:04.743Z,7.10
2019-05-13T02:18:34.786Z,7.10
2019-05-13T02:21:05.651Z,7.10
2019-05-13T02:23:35.846Z,7.10
2019-05-13T02:26:05.808Z,7.00
2019-05-13T02:28:35.867Z,7.10
2019-05-13T02:31:05.819Z,7.20
2019-05-13T02:33:35.815Z,7.20
2019-05-13T02:36:05.799Z,7.20
2019-05-13T02:38:36.040Z,7.20
2019-05-13T02:41:06.094Z,7.10
2019-05-13T02:43:37.422Z,7.00
2019-05-13T02:46:07.794Z,6.60
2019-05-13T02:48:37.841Z,6.10
2019-05-13T02:51:12.301Z,5.70
2019-05-13T02:53:43.713Z,5.60
2019-05-13T02:56:12.872Z,5.70
2019-05-13T02:58:43.111Z,5.50
2019-05-13T03:01:13.164Z,5.40
2019-05-13T03:03:44.396Z,5.10
2019-05-13T03:06:14.683Z,5.00
2019-05-13T03:08:49.898Z,4.80
2019-05-13T03:11:16.396Z,4.70
2019-05-13T03:13:46.408Z,4.80
2019-05-13T03:16:35.310Z,4.80
2019-05-13T03:19:05.300Z,4.80
2019-05-13T03:21:35.403Z,4.90
2019-05-13T03:24:05.603Z,4.90
2019-05-13T03:26:35.577Z,4.70
2019-05-13T03:29:05.647Z,4.40
2019-05-13T03:31:36.458Z,4.40
2019-05-13T03:34:07.625Z,4.40
2019-05-13T03:36:45.133Z,4.20
2019-05-13T03:39:14.614Z,4.10
2019-05-13T03:41:42.570Z,3.90
2019-05-13T03:44:13.753Z,3.80
2019-05-13T03:46:43.900Z,3.90
2019-05-13T03:49:14.388Z,3.90
2019-05-13T03:51:46.959Z,3.80
2019-05-13T03:54:17.071Z,3.80
2019-05-13T03:56:47.041Z,3.80
2019-05-13T03:59:18.177Z,3.90
2019-05-13T04:01:48.236Z,3.90
2019-05-13T04:04:18.295Z,4.00
2019-05-13T04:06:48.302Z,4.00
2019-05-13T04:09:27.632Z,4.10
2019-05-13T04:11:52.570Z,4.10
2019-05-13T04:14:22.884Z,4.10
2019-05-13T04:16:53.615Z,4.00
2019-05-13T04:19:24.807Z,4.00
2019-05-13T04:21:54.759Z,4.10
2019-05-13T04:24:24.833Z,4.20
2019-05-13T04:26:54.929Z,4.10
2019-05-13T04:29:25.046Z,4.10
2019-05-13T04:31:55.075Z,4.10
2019-05-13T04:34:26.143Z,4.10
2019-05-13T04:36:58.361Z,4.10
2019-05-13T04:39:41.742Z,4.20
2019-05-13T04:42:02.340Z,4.30
2019-05-13T04:44:32.659Z,4.50
2019-05-13T04:47:03.851Z,4.60
2019-05-13T04:49:34.258Z,4.80
2019-05-13T04:52:04.233Z,5.10
2019-05-13T04:54:34.403Z,5.70
2019-05-13T04:57:04.368Z,5.80
2019-05-13T04:59:40.053Z,6.00
2019-05-13T05:02:57.399Z,6.30
2019-05-13T05:05:52.484Z,6.50
2019-05-13T05:09:12.683Z,6.80
2019-05-13T05:12:31.869Z,6.90
2019-05-13T05:15:52.348Z,7.10
2019-05-13T05:18:52.690Z,7.50
2019-05-13T05:21:26.567Z,7.80
2019-05-13T05:24:41.395Z,8.50
2019-05-13T05:27:48.663Z,10.60
2019-05-13T05:30:54.746Z,13.00
2019-05-13T05:34:12.044Z,14.40
2019-05-13T05:36:57.403Z,16.10
2019-05-13T05:39:27.767Z,17.00
2019-05-13T05:41:58.265Z,16.50
2019-05-13T05:44:32.065Z,16.80
2019-05-13T05:47:02.783Z,17.00
2019-05-13T05:49:33.015Z,16.10
2019-05-13T05:52:06.336Z,15.00
2019-05-13T05:54:37.400Z,15.00
2019-05-13T05:57:07.852Z,16.00
2019-05-13T05:59:37.799Z,15.50
2019-05-13T06:02:08.435Z,15.20
2019-05-13T06:04:38.456Z,15.10
2019-05-13T06:07:08.487Z,15.80
2019-05-13T06:09:38.496Z,16.50
2019-05-13T06:12:08.578Z,17.30
2019-05-13T06:14:38.574Z,17.10
2019-05-13T06:17:08.615Z,16.30
2019-05-13T06:19:38.626Z,16.10
2019-05-13T06:22:08.622Z,16.00
2019-05-13T06:24:38.716Z,15.90
2019-05-13T06:27:08.697Z,16.80
2019-05-13T06:29:38.824Z,17.30
2019-05-13T06:32:21.209Z,17.90
2019-05-13T06:34:41.502Z,19.30
2019-05-13T06:37:11.620Z,18.40
2019-05-13T06:39:42.765Z,17.70
2019-05-13T06:42:12.838Z,19.30
2019-05-13T06:44:42.833Z,19.50
2019-05-13T06:47:12.807Z,18.40
2019-05-13T06:49:43.021Z,19.20
2019-05-13T06:52:13.195Z,21.30
2019-05-13T06:54:43.190Z,21.60
2019-05-13T06:57:13.637Z,18.20
2019-05-13T06:59:43.788Z,20.40
2019-05-13T07:02:13.776Z,20.20
2019-05-13T07:04:43.781Z,20.00
2019-05-13T07:07:17.334Z,20.10
2019-05-13T07:09:46.907Z,20.30
2019-05-13T07:12:16.974Z,20.50
2019-05-13T07:14:47.259Z,20.10
2019-05-13T07:17:17.223Z,20.30
2019-05-13T07:19:47.211Z,21.50
2019-05-13T07:22:17.195Z,22.00
2019-05-13T07:24:47.250Z,20.80
2019-05-13T07:27:17.235Z,19.90
2019-05-13T07:29:47.340Z,20.30
2019-05-13T07:32:17.349Z,21.80
2019-05-13T07:34:47.408Z,22.10
2019-05-13T07:37:17.541Z,20.90
2019-05-13T07:39:47.527Z,20.90
2019-05-13T07:42:17.514Z,21.70
2019-05-13T07:44:47.715Z,21.40
2019-05-13T07:47:17.762Z,21.50
2019-05-13T07:49:47.799Z,21.10
2019-05-13T07:52:17.837Z,20.90
2019-05-13T07:54:47.902Z,20.80
2019-05-13T07:57:17.902Z,20.20
2019-05-13T07:59:47.948Z,20.50
2019-05-13T08:02:17.940Z,20.40
2019-05-13T08:04:49.530Z,20.10
2019-05-13T08:07:22.628Z,20.90
2019-05-13T08:09:55.707Z,19.70
2019-05-13T08:12:24.136Z,20.10
2019-05-13T08:14:54.222Z,19.60
2019-05-13T08:17:24.238Z,19.30
2019-05-13T08:19:54.267Z,20.30
2019-05-13T08:22:24.958Z,20.60
2019-05-13T08:24:55.014Z,21.20
2019-05-13T08:27:30.401Z,21.80
2019-05-13T08:29:56.687Z,22.10
2019-05-13T08:32:26.859Z,22.30
2019-05-13T08:35:01.482Z,21.50
2019-05-13T08:37:28.624Z,20.90
2019-05-13T08:40:01.342Z,21.40
2019-05-13T08:42:32.283Z,21.30
2019-05-13T08:45:02.263Z,21.20
2019-05-13T08:47:32.500Z,20.70
2019-05-13T08:50:04.491Z,19.80
2019-05-13T08:52:34.866Z,20.60
2019-05-13T08:55:05.394Z,20.50
2019-05-13T08:57:35.639Z,20.90
2019-05-13T09:00:06.451Z,19.70
2019-05-13T09:02:36.588Z,19.00
2019-05-13T09:05:08.088Z,19.50
2019-05-13T09:07:38.082Z,18.70
2019-05-13T09:10:08.151Z,19.40
2019-05-13T09:12:40.988Z,19.60
2019-05-13T09:15:11.899Z,18.60
2019-05-13T09:17:42.562Z,18.20
2019-05-13T09:20:11.744Z,19.10
2019-05-13T09:22:41.385Z,18.60
2019-05-13T09:25:12.516Z,19.30
2019-05-13T09:27:42.524Z,20.10
2019-05-13T09:30:11.989Z,21.10
2019-05-13T09:32:42.703Z,20.70
2019-05-13T09:35:12.920Z,19.90
2019-05-13T09:37:43.076Z,20.80
2019-05-13T09:40:12.179Z,20.50
2019-05-13T09:42:49.144Z,21.20
2019-05-13T09:45:14.104Z,20.90
2019-05-13T09:47:44.279Z,20.40
2019-05-13T09:50:28.555Z,20.40
2019-05-13T09:52:46.055Z,20.40
2019-05-13T09:55:26.409Z,19.90
2019-05-13T09:57:52.277Z,19.90
2019-05-13T10:00:21.754Z,19.90
2019-05-13T10:02:52.057Z,19.70
2019-05-13T10:05:22.447Z,20.20
2019-05-13T10:07:52.620Z,20.00
2019-05-13T10:10:22.841Z,19.40
2019-05-13T10:13:07.880Z,19.60
2019-05-13T10:15:24.648Z,19.40
2019-05-13T10:17:54.671Z,19.60
2019-05-13T10:20:45.676Z,19.00
2019-05-13T10:23:15.767Z,19.00
2019-05-13T10:25:47.605Z,19.50
2019-05-13T10:28:17.707Z,19.10
2019-05-13T10:30:47.771Z,18.40
2019-05-13T10:33:17.780Z,17.70
2019-05-13T10:35:47.881Z,18.20
2019-05-13T10:38:17.987Z,19.00
2019-05-13T10:40:47.999Z,18.90
2019-05-13T10:43:31.165Z,18.70
2019-05-13T10:45:52.327Z,18.60
2019-05-13T10:48:22.167Z,18.70
2019-05-13T10:50:53.133Z,19.30
2019-05-13T10:53:23.552Z,18.80
2019-05-13T10:55:53.687Z,18.00
2019-05-13T10:58:23.720Z,17.70
2019-05-13T11:00:54.181Z,17.30
2019-05-13T11:03:24.472Z,17.10
2019-05-13T11:05:55.593Z,17.00
2019-05-13T11:08:25.839Z,17.30
2019-05-13T11:10:55.921Z,17.00
2019-05-13T11:13:45.770Z,16.70
2019-05-13T11:15:58.786Z,16.60
2019-05-13T11:18:29.048Z,16.80
2019-05-13T11:21:01.756Z,16.70
2019-05-13T11:23:32.153Z,16.80
2019-05-13T11:26:03.297Z,17.00
2019-05-13T11:28:33.837Z,16.80
2019-05-13T11:31:03.877Z,16.80
2019-05-13T11:33:33.895Z,16.80
2019-05-13T11:36:03.996Z,16.50
2019-05-13T11:38:34.064Z,16.60
2019-05-13T11:41:04.176Z,16.70
2019-05-13T11:43:34.240Z,16.80
2019-05-13T11:46:05.421Z,16.80
2019-05-13T11:48:35.486Z,16.50
2019-05-13T11:51:05.492Z,16.80
2019-05-13T11:53:37.734Z,16.70
2019-05-13T11:56:07.336Z,16.90
2019-05-13T11:58:37.394Z,16.70
2019-05-13T12:01:07.575Z,16.60
2019-05-13T12:03:37.620Z,16.70
2019-05-13T12:06:07.821Z,16.90
2019-05-13T12:08:37.923Z,17.30
2019-05-13T12:11:08.007Z,16.80
2019-05-13T12:13:38.370Z,16.80
2019-05-13T12:16:08.375Z,17.20
2019-05-13T12:18:43.458Z,16.90
2019-05-13T12:21:12.328Z,16.80
2019-05-13T12:23:42.900Z,17.00
2019-05-13T12:26:13.616Z,16.90
2019-05-13T12:28:43.948Z,17.00
2019-05-13T12:31:15.352Z,17.00
2019-05-13T12:33:45.416Z,17.20
2019-05-13T12:36:18.686Z,17.10
2019-05-13T12:38:48.379Z,17.30
2019-05-13T12:41:18.459Z,16.90
2019-05-13T12:43:48.523Z,16.80
2019-05-13T12:46:18.618Z,17.00
2019-05-13T12:48:49.836Z,17.20
2019-05-13T12:51:20.115Z,17.00
2019-05-13T12:53:52.716Z,17.00
2019-05-13T12:56:24.245Z,17.10
2019-05-13T12:58:54.316Z,17.30
2019-05-13T13:01:24.481Z,17.50
2019-05-13T13:03:54.632Z,17.20
2019-05-13T13:06:35.281Z,17.20
2019-05-13T13:08:56.732Z,17.30
2019-05-13T13:11:27.180Z,17.40
2019-05-13T13:13:59.987Z,17.50
2019-05-13T13:16:34.478Z,17.50
2019-05-13T13:19:02.638Z,17.60
2019-05-13T13:21:37.350Z,17.40
2019-05-13T13:24:04.906Z,17.50
2019-05-13T13:26:36.225Z,17.60
2019-05-13T13:29:06.467Z,17.50
2019-05-13T13:31:36.774Z,17.60
2019-05-13T13:34:12.528Z,17.60
2019-05-13T13:36:39.053Z,17.50
2019-05-13T13:39:09.519Z,17.50
2019-05-13T13:41:43.427Z,17.50
2019-05-13T13:44:12.410Z,17.20
2019-05-13T13:46:49.081Z,17.40
2019-05-13T13:49:14.831Z,17.50
2019-05-13T13:51:45.217Z,17.50
2019-05-13T13:54:15.350Z,17.20
2019-05-13T13:56:45.420Z,17.20
2019-05-13T13:59:15.809Z,17.40
2019-05-13T14:01:45.901Z,17.50
2019-05-13T14:04:16.718Z,17.40
2019-05-13T14:09:22.395Z,17.50
2019-05-13T14:11:51.706Z,17.50
2019-05-13T14:14:21.814Z,17.70
2019-05-13T14:16:52.092Z,18.10
2019-05-13T14:19:22.196Z,17.90
2019-05-13T14:21:52.765Z,17.90
2019-05-13T14:24:24.219Z,17.40
2019-05-13T14:26:54.376Z,17.50
2019-05-13T14:29:37.460Z,17.60
2019-05-13T14:31:56.480Z,17.50
2019-05-13T14:34:26.563Z,17.80
2019-05-13T14:36:56.699Z,17.70
2019-05-13T14:39:26.756Z,17.50
2019-05-13T14:41:56.952Z,17.30
2019-05-13T14:44:27.105Z,17.60
2019-05-13T14:46:57.257Z,17.70
2019-05-13T14:49:27.459Z,17.50
2019-05-13T14:51:57.578Z,17.40
2019-05-13T14:54:27.664Z,17.40
2019-05-13T14:56:57.941Z,17.30
2019-05-13T14:59:28.020Z,17.50
2019-05-13T15:01:58.129Z,17.50
2019-05-13T15:04:28.281Z,17.50
2019-05-13T15:06:58.341Z,17.50
2019-05-13T15:09:28.561Z,17.50
2019-05-13T15:11:58.693Z,17.90
2019-05-13T15:45:36.044Z,23.70
2019-05-13T15:50:13.790Z,19.60
2019-05-13T15:52:43.915Z,18.50
2019-05-13T15:55:12.371Z,17.90
2019-05-13T16:03:23.237Z,21.00
2019-05-13T16:05:54.536Z,20.50
2019-05-13T16:08:25.791Z,19.70
2019-05-13T16:10:56.959Z,19.00
2019-05-13T16:13:28.228Z,18.50
2019-05-13T16:16:01.503Z,18.20
2019-05-13T16:18:32.448Z,18.00
2019-05-13T16:21:04.764Z,17.90
2019-05-13T16:23:35.935Z,17.60
2019-05-13T16:26:07.151Z,17.50
2019-05-13T16:28:41.692Z,17.50
2019-05-13T16:31:11.945Z,17.50
2019-05-13T16:33:43.330Z,17.50
2019-05-13T16:36:14.488Z,17.40
2019-05-13T16:38:45.702Z,17.30
2019-05-13T16:41:17.227Z,17.30
2019-05-13T16:43:48.546Z,17.30
2019-05-13T16:46:21.465Z,17.40
2019-05-13T16:48:53.196Z,17.40
2019-05-13T16:51:24.507Z,17.40
2019-05-13T16:53:56.011Z,17.30
2019-05-13T16:56:30.356Z,17.20
2019-05-13T16:59:01.563Z,17.20
2019-05-13T17:01:33.054Z,17.10
2019-05-13T17:04:04.273Z,17.00
2019-05-13T17:06:35.504Z,16.90
2019-05-13T17:09:07.882Z,16.70
2019-05-13T17:11:41.328Z,16.70
2019-05-13T17:14:12.189Z,16.70
2019-05-13T17:16:43.387Z,16.70
2019-05-13T17:19:14.653Z,16.80
2019-05-13T17:21:45.803Z,16.70
2019-05-13T17:24:16.987Z,16.70
2019-05-13T17:26:48.152Z,16.60
2019-05-13T17:29:21.139Z,16.50
2019-05-13T17:31:52.501Z,16.40
2019-05-13T17:34:23.703Z,16.30
2019-05-13T17:36:54.916Z,16.30
2019-05-13T17:39:26.082Z,16.20
2019-05-13T17:41:57.873Z,16.20
2019-05-13T17:44:31.559Z,16.20
2019-05-13T17:47:02.207Z,16.10
2019-05-13T17:49:33.508Z,16.00
2019-05-13T17:52:04.691Z,16.00
2019-05-13T17:54:35.879Z,16.00
2019-05-13T17:57:07.037Z,15.90
2019-05-13T17:59:38.304Z,15.90
2019-05-13T18:02:11.605Z,15.80
2019-05-13T18:04:42.445Z,15.80
2019-05-13T18:07:13.561Z,15.70
2019-05-13T18:09:44.749Z,15.70
2019-05-13T18:12:15.902Z,15.60
2019-05-13T18:14:47.085Z,15.50
2019-05-13T18:17:18.357Z,15.60
2019-05-13T18:19:51.487Z,15.40
2019-05-13T18:22:22.421Z,15.40
2019-05-13T18:24:53.599Z,15.30
2019-05-13T18:27:24.752Z,15.20
2019-05-13T18:29:55.947Z,15.10
2019-05-13T18:32:27.164Z,15.00
2019-05-13T18:34:58.379Z,15.00
2019-05-13T18:37:31.548Z,15.00
2019-05-13T18:40:02.736Z,14.80
2019-05-13T18:42:35.270Z,14.70
2019-05-13T18:45:07.168Z,14.60
2019-05-13T18:47:38.401Z,14.50
2019-05-13T18:50:11.539Z,14.30
2019-05-13T18:52:43.241Z,14.20
2019-05-13T18:55:15.901Z,14.10
2019-05-13T18:57:47.065Z,13.90
2019-05-13T19:00:18.268Z,13.80
2019-05-13T19:02:49.420Z,13.70
2019-05-13T19:05:21.357Z,13.60
2019-05-13T19:07:52.547Z,13.50
2019-05-13T19:10:24.998Z,13.30
2019-05-13T19:12:57.972Z,13.20
2019-05-13T19:15:31.570Z,13.00
2019-05-13T19:18:02.639Z,13.00
2019-05-13T19:20:34.364Z,13.00
2019-05-13T19:23:08.266Z,12.80
2019-05-13T19:25:42.775Z,12.70
2019-05-13T19:28:14.426Z,12.50
2019-05-13T19:30:46.851Z,12.50
2019-05-13T19:33:18.473Z,12.30
2019-05-13T19:35:51.838Z,12.10
2019-05-13T19:38:22.900Z,11.90
2019-05-13T19:40:54.279Z,11.80
2019-05-13T19:43:25.531Z,11.60
2019-05-13T19:45:56.712Z,11.60
2019-05-13T19:48:27.969Z,11.50
2019-05-13T19:51:01.536Z,11.40
2019-05-13T19:53:32.421Z,11.30
2019-05-13T19:56:03.592Z,11.20
2019-05-13T19:58:34.760Z,11.00
2019-05-13T20:01:05.924Z,10.90
2019-05-13T20:03:37.195Z,10.80
2019-05-13T20:06:09.338Z,10.70
2019-05-13T20:08:41.255Z,10.60
2019-05-13T20:11:12.704Z,10.50
2019-05-13T20:13:43.845Z,10.40
2019-05-13T20:16:15.075Z,10.30
2019-05-13T20:18:46.261Z,10.20
2019-05-13T20:21:17.996Z,10.00
2019-05-13T20:23:49.249Z,9.90
2019-05-13T20:26:21.682Z,9.90
2019-05-13T20:28:52.962Z,9.80
2019-05-13T20:31:24.122Z,9.70
2019-05-13T20:33:55.321Z,9.70
2019-05-13T20:36:35.083Z,9.70
2019-05-13T20:39:07.753Z,9.30
2019-05-13T20:41:41.241Z,9.50
2019-05-13T20:44:11.994Z,9.50
2019-05-13T20:46:43.294Z,9.40
2019-05-13T20:49:14.535Z,9.50
2019-05-13T20:51:46.761Z,9.40
2019-05-13T20:54:17.972Z,9.40
2019-05-13T20:56:51.639Z,9.30
2019-05-13T20:59:22.026Z,9.30
2019-05-13T21:01:54.264Z,9.30
2019-05-13T21:04:25.455Z,9.30
2019-05-13T21:06:56.623Z,9.30
2019-05-13T21:09:27.840Z,9.30
2019-05-13T21:12:01.504Z,9.20
2019-05-13T21:14:32.180Z,9.10
2019-05-13T21:17:05.877Z,9.00
2019-05-13T21:19:42.605Z,9.10
2019-05-13T21:22:13.085Z,9.00
2019-05-13T21:24:44.628Z,9.10
2019-05-13T21:27:16.117Z,9.00
2019-05-13T21:29:48.749Z,9.00
2019-05-13T21:32:23.996Z,8.90
2019-05-13T21:34:55.810Z,8.90
2019-05-13T21:37:27.271Z,8.80
2019-05-13T21:39:58.438Z,8.70
2019-05-13T21:42:29.607Z,8.70
2019-05-13T21:45:03.124Z,8.60
2019-05-13T21:47:34.529Z,8.60
2019-05-13T21:50:07.357Z,8.70
2019-05-13T21:52:38.537Z,8.60
2019-05-13T21:55:11.348Z,8.60
2019-05-13T21:57:42.746Z,8.50
2019-05-13T22:00:23.472Z,8.50
2019-05-13T22:02:53.658Z,8.50
2019-05-13T22:05:24.918Z,8.50
2019-05-13T22:07:56.065Z,8.50
2019-05-13T22:10:27.354Z,8.40
2019-05-13T22:12:58.556Z,8.40
2019-05-13T22:15:32.158Z,8.30
2019-05-13T22:18:03.255Z,8.30
2019-05-13T22:20:47.371Z,8.30
2019-05-13T22:23:07.375Z,8.20
2019-05-13T22:25:38.588Z,8.20
2019-05-13T22:28:11.729Z,8.20
2019-05-13T22:30:42.691Z,8.20
2019-05-13T22:33:13.870Z,8.20
2019-05-13T22:35:45.038Z,8.20
2019-05-13T22:38:16.218Z,8.10
2019-05-13T22:40:47.428Z,8.20
2019-05-13T22:43:21.174Z,8.10
2019-05-13T22:45:52.466Z,8.00
2019-05-13T22:48:23.670Z,7.90
2019-05-13T22:50:54.924Z,7.80
2019-05-13T22:53:26.098Z,7.80
2019-05-13T22:55:57.264Z,7.80
2019-05-13T22:58:28.552Z,7.80
2019-05-13T23:01:02.235Z,7.80
2019-05-13T23:03:32.674Z,7.80
2019-05-13T23:06:03.890Z,7.70
2019-05-13T23:08:35.040Z,7.60
2019-05-13T23:11:06.204Z,7.60
2019-05-13T23:13:37.490Z,7.60
2019-05-13T23:16:11.557Z,7.60
2019-05-13T23:18:42.779Z,7.60
2019-05-13T23:21:13.910Z,7.50
2019-05-13T23:23:45.034Z,7.50
2019-05-13T23:26:16.239Z,7.50
2019-05-13T23:28:47.360Z,7.50
2019-05-13T23:31:18.520Z,7.50
2019-05-13T23:33:49.719Z,7.50
2019-05-13T23:36:21.171Z,7.60
2019-05-13T23:38:52.364Z,7.60
2019-05-13T23:41:23.534Z,7.60
2019-05-13T23:43:55.737Z,7.60
2019-05-13T23:46:26.859Z,7.50
2019-05-13T23:48:58.020Z,7.50
2019-05-13T23:51:29.205Z,7.50
2019-05-13T23:54:01.598Z,7.40
2019-05-13T23:56:32.945Z,7.30
2019-05-13T23:59:04.091Z,7.30
